KVBG/VBG METAR and TAF weather

Enter ICAO airport designator
Station Type Date Time Source
KVBG METAR 2018/12/15 20:58 UTC NOAA

KVBG 152058Z AUTO 35008KT 10SM CLR 17/10 A3009 RMK AO2 SLP193 T01670099 56011 $


Station Type Date Time Source
KVBG Decoded METAR 2018/12/15 20:58 UTC NOAA

Lompoc, Vandenberg Air Force Base, CA, United States (KVBG) 34-43-46N 120-34-36W 121M
Dec 15, 2018 - 03:58 PM EST / 2018.12.15 2058 UTC
Wind: from the N (350 degrees) at 9 MPH (8 KT):0
Visibility: 10 mile(s):0
Sky conditions: clear
Temperature: 62.1 F (16.7 C)
Dew Point: 49.8 F (9.9 C)
Relative Humidity: 64%
Pressure (altimeter): 30.09 in. Hg (1018 hPa)
Pressure tendency: 0.03 inches (1.1 hPa) lower than three hours ago
ob: KVBG 152058Z AUTO 35008KT 10SM CLR 17/10 A3009 RMK AO2 SLP193 T01670099 56011
cycle: 21

Station Type Date Time Source
KVBG TAF 2018/12/14 23:11 UTC NOAA

TAF COR KVBG 140407Z 1323/1505 34009KT 9999 FEW300 QNH3011INS
BECMG 1401/1402 12006KT 9999 FEW300 QNH3012INS
BECMG 1407/1408 13012KT 9999 SCT150 BKN200 QNH3010INS
BECMG 1411/1412 13012KT 8000 BR BKN007 OVC170 QNH3012INS
BECMG 1416/1417 16010G15KT 9999 NSW SCT009 OVC150 QNH3013INS
BECMG 1420/1421 16012G18KT 9999 SCT015 OVC150 QNH3011INS
BECMG 1501/1502 12009KT 9999 FEW250 QNH3013INS TX20/1323Z TN05/1415Z LAST NO
AMDS AFT 1401 NEXT 1507


Example: see airport list